Time;durP1;ratioP1;P1;durP2;ratioP2;P2;SDS_P1;SDS_P2;PMS_P1;PMS_P2;Temp;Humidity;BMP_temperature;BMP_pressure;BME280_temperature;BME280_humidity;BME280_pressure;Samples;Min_cycle;Max_cycle;Signal;HPM_P1;HPM_P2
2021/07/26 00:01:32;;;;;;;4.17;3.77;;;;;;;16.95;100.00;95454.88;4972065;28;20459;-75
2021/07/26 00:03:59;;;;;;;5.70;3.67;;;;;;;16.87;100.00;95453.78;4973433;28;20451;-75
2021/07/26 00:06:24;;;;;;;7.22;3.50;;;;;;;16.82;100.00;95452.53;4971877;28;20416;-75
2021/07/26 00:08:50;;;;;;;4.70;3.80;;;;;;;16.91;100.00;95457.75;4972246;28;20419;-76
2021/07/26 00:11:17;;;;;;;5.63;3.38;;;;;;;16.93;100.00;95461.03;4973210;28;20786;-75
2021/07/26 00:13:42;;;;;;;5.72;3.55;;;;;;;16.95;100.00;95460.09;4972108;28;20455;-75
2021/07/26 00:16:08;;;;;;;3.50;3.20;;;;;;;16.80;100.00;95451.88;4972984;28;20444;-75
2021/07/26 00:18:34;;;;;;;6.78;3.30;;;;;;;16.69;100.00;95458.88;4973113;28;20471;-75
2021/07/26 00:21:00;;;;;;;3.80;2.50;;;;;;;16.81;100.00;95451.72;4971910;28;20423;-75
2021/07/26 00:23:26;;;;;;;3.85;2.75;;;;;;;16.84;100.00;95451.44;4971808;28;20511;-75
2021/07/26 00:25:52;;;;;;;4.80;2.58;;;;;;;16.81;100.00;95456.97;4971622;28;20428;-75
2021/07/26 00:28:19;;;;;;;3.22;2.88;;;;;;;16.77;100.00;95452.16;4973145;28;20466;-75
2021/07/26 00:30:45;;;;;;;4.80;2.77;;;;;;;16.81;100.00;95462.19;4971558;28;20516;-75
2021/07/26 00:34:04;;;;;;;3.73;3.23;;;;;;;16.90;100.00;95458.69;4972728;28;20965;-75
2021/07/26 00:36:30;;;;;;;4.25;3.10;;;;;;;16.87;100.00;95459.00;4972873;28;20766;-75
2021/07/26 00:38:55;;;;;;;5.38;3.05;;;;;;;16.83;100.00;95452.38;4971611;28;20420;-75
2021/07/26 00:41:22;;;;;;;5.70;3.50;;;;;;;16.82;100.00;95461.22;4972654;28;20911;-75
2021/07/26 00:43:49;;;;;;;4.50;3.63;;;;;;;16.72;100.00;95465.59;4972755;28;20431;-75
2021/07/26 00:46:14;;;;;;;5.85;3.95;;;;;;;16.61;100.00;95461.38;4972376;28;20475;-75
2021/07/26 00:48:40;;;;;;;4.13;3.67;;;;;;;16.47;100.00;95463.63;4972641;28;20428;-75
2021/07/26 00:51:05;;;;;;;8.13;4.17;;;;;;;16.47;100.00;95461.00;4972513;28;20451;-75
2021/07/26 00:53:31;;;;;;;6.00;4.37;;;;;;;16.54;100.00;95460.31;4971303;28;20985;-75
2021/07/26 00:55:57;;;;;;;4.93;3.83;;;;;;;16.59;100.00;95459.88;4972257;28;20910;-75
2021/07/26 00:58:22;;;;;;;5.07;4.07;;;;;;;16.59;100.00;95459.88;4972408;28;20901;-75
2021/07/26 01:00:49;;;;;;;7.38;4.25;;;;;;;16.43;100.00;95455.22;4971238;28;20798;-75
2021/07/26 01:03:14;;;;;;;6.63;4.57;;;;;;;16.39;100.00;95453.88;4972203;28;20470;-75
2021/07/26 01:05:40;;;;;;;5.90;4.00;;;;;;;16.47;100.00;95456.59;4972268;28;20444;-75
2021/07/26 01:08:05;;;;;;;4.87;4.10;;;;;;;16.55;100.00;95464.56;4972392;28;20574;-75
2021/07/26 01:10:31;;;;;;;6.57;4.22;;;;;;;16.62;100.00;95475.28;4971051;28;20955;-75
2021/07/26 01:12:56;;;;;;;6.40;4.72;;;;;;;16.59;100.00;95470.34;4972015;28;20447;-75
2021/07/26 01:15:22;;;;;;;5.10;4.60;;;;;;;16.48;100.00;95470.47;4972052;28;20455;-74
2021/07/26 01:18:23;;;;;;;7.23;4.53;;;;;;;16.54;100.00;95467.28;4972197;28;20412;-75
2021/07/26 01:20:51;;;;;;;10.70;3.90;;;;;;;16.47;100.00;95469.66;4970934;28;20419;-75
2021/07/26 01:23:16;;;;;;;4.25;3.85;;;;;;;16.47;100.00;95467.06;4971978;28;20432;-75
2021/07/26 01:25:42;;;;;;;11.33;4.20;;;;;;;16.36;100.00;95465.41;4971981;28;20759;-75
2021/07/26 01:28:07;;;;;;;18.58;4.10;;;;;;;16.26;100.00;95464.59;4972255;28;20735;-75
2021/07/26 01:30:33;;;;;;;6.80;4.17;;;;;;;16.28;100.00;95467.91;4972040;28;20416;-76
2021/07/26 01:32:58;;;;;;;4.37;3.97;;;;;;;16.34;100.00;95469.94;4971795;28;20498;-75
2021/07/26 01:35:24;;;;;;;6.10;4.27;;;;;;;16.44;100.00;95469.94;4971710;28;20423;-75
2021/07/26 01:37:51;;;;;;;7.38;4.03;;;;;;;16.41;100.00;95462.38;4972374;28;20890;-75
2021/07/26 01:40:16;;;;;;;6.28;4.40;;;;;;;16.40;100.00;95465.97;4970794;28;20793;-75
2021/07/26 01:42:43;;;;;;;6.15;4.22;;;;;;;16.44;100.00;95465.53;4971764;28;20427;-75
2021/07/26 01:45:09;;;;;;;6.00;4.13;;;;;;;16.49;100.00;95472.13;4971775;28;20467;-75
2021/07/26 01:47:39;;;;;;;4.32;3.75;;;;;;;16.48;100.00;95460.84;4971798;28;20940;-75
2021/07/26 01:50:09;;;;;;;4.63;3.40;;;;;;;16.47;100.00;95464.44;4971863;28;20416;-75
2021/07/26 01:52:35;;;;;;;6.95;4.30;;;;;;;16.42;100.00;95458.78;4970398;28;20423;-75
2021/07/26 01:55:02;;;;;;;4.88;3.80;;;;;;;16.47;100.00;95459.22;4971765;28;20475;-75
2021/07/26 01:57:28;;;;;;;4.78;3.63;;;;;;;16.48;100.00;95458.22;4970371;28;20427;-75
2021/07/26 01:59:53;;;;;;;4.93;4.30;;;;;;;16.47;100.00;95459.22;4971695;28;20802;-75
2021/07/26 02:02:19;;;;;;;5.57;3.92;;;;;;;16.50;100.00;95460.69;4999743;23;20449;-78
2021/07/26 02:04:44;;;;;;;8.23;4.20;;;;;;;16.36;100.00;95464.59;5014691;28;20416;-76
2021/07/26 02:07:10;;;;;;;7.03;3.90;;;;;;;16.45;100.00;95466.34;5014418;28;20416;-77
2021/07/26 02:09:35;;;;;;;4.07;3.50;;;;;;;16.45;100.00;95468.97;5014677;28;20467;-76
2021/07/26 02:12:03;;;;;;;6.70;4.22;;;;;;;16.39;100.00;95477.38;5014527;28;20664;-78
2021/07/26 02:14:28;;;;;;;6.78;4.00;;;;;;;16.35;100.00;95471.59;5013551;28;20424;-77
2021/07/26 02:16:54;;;;;;;4.65;3.80;;;;;;;16.21;100.00;95477.25;5014183;28;20409;-77
2021/07/26 02:19:19;;;;;;;5.30;3.83;;;;;;;16.23;100.00;95475.31;5013173;28;20522;-78
2021/07/26 02:21:45;;;;;;;4.73;3.90;;;;;;;16.18;100.00;95487.97;5013082;28;20467;-76
2021/07/26 02:24:10;;;;;;;7.57;4.20;;;;;;;16.16;100.00;95479.44;5013035;28;20424;-76
2021/07/26 02:26:36;;;;;;;8.98;4.57;;;;;;;16.06;100.00;95473.41;5014107;28;20423;-78
2021/07/26 02:29:02;;;;;;;5.57;3.87;;;;;;;16.12;100.00;95478.88;5012912;28;20420;-76
2021/07/26 02:31:28;;;;;;;5.23;4.03;;;;;;;16.02;100.00;95477.22;5014255;28;20506;-78
2021/07/26 02:33:53;;;;;;;5.03;3.87;;;;;;;16.05;100.00;95474.34;5014110;28;20931;-77
2021/07/26 02:36:19;;;;;;;5.83;3.87;;;;;;;16.12;100.00;95468.44;5013819;28;20412;-76
2021/07/26 02:38:44;;;;;;;5.70;3.33;;;;;;;16.19;100.00;95471.31;5014144;28;20500;-78
2021/07/26 02:41:10;;;;;;;4.97;3.57;;;;;;;16.30;100.00;95486.03;5014054;28;20416;-76
2021/07/26 02:43:36;;;;;;;4.07;3.25;;;;;;;16.33;100.00;95488.38;5013971;28;20436;-76
2021/07/26 02:46:05;;;;;;;5.10;3.40;;;;;;;16.31;100.00;95485.06;5013687;28;20420;-76
2021/07/26 02:48:31;;;;;;;4.85;3.65;;;;;;;16.27;100.00;95487.13;5012615;28;20420;-76
2021/07/26 02:50:56;;;;;;;4.27;3.23;;;;;;;16.28;100.00;95486.19;5014056;28;20424;-76
2021/07/26 02:53:21;;;;;;;4.82;3.70;;;;;;;16.31;100.00;95498.13;5013770;28;20967;-76
2021/07/26 02:55:47;;;;;;;4.33;3.63;;;;;;;16.31;100.00;95498.13;5013524;28;20413;-77
2021/07/26 02:58:12;;;;;;;5.83;3.60;;;;;;;16.28;100.00;95482.72;5012720;28;20448;-76
2021/07/26 03:00:38;;;;;;;4.60;3.42;;;;;;;16.36;100.00;95496.78;5013706;28;20413;-76
2021/07/26 03:03:04;;;;;;;5.00;3.63;;;;;;;16.39;100.00;95487.84;5013415;28;20409;-77
2021/07/26 03:05:32;;;;;;;5.88;3.80;;;;;;;16.43;100.00;95495.25;5013242;28;20412;-77
2021/07/26 03:07:57;;;;;;;4.07;3.38;;;;;;;16.45;100.00;95493.31;5013751;28;20499;-78
2021/07/26 03:10:23;;;;;;;5.72;3.80;;;;;;;16.42;100.00;95488.34;5012221;28;20492;-78
2021/07/26 03:12:48;;;;;;;6.67;3.30;;;;;;;16.37;100.00;95498.41;5011836;28;20822;-78
2021/07/26 03:15:13;;;;;;;4.10;3.60;;;;;;;16.36;100.00;95496.78;5013173;28;20427;-77
2021/07/26 03:17:39;;;;;;;4.25;3.50;;;;;;;16.37;100.00;95497.59;5013320;28;20833;-75
2021/07/26 03:20:07;;;;;;;6.30;3.50;;;;;;;16.34;100.00;95500.47;5012084;28;20417;-76
2021/07/26 03:22:56;;;;;;;4.20;3.53;;;;;;;16.37;100.00;95500.22;5013290;28;20839;-76
2021/07/26 03:25:22;;;;;;;4.53;3.57;;;;;;;16.39;100.00;95503.53;5013018;28;20425;-77
2021/07/26 03:27:48;;;;;;;6.15;3.25;;;;;;;16.39;100.00;95498.28;5013107;28;20925;-78
2021/07/26 03:30:14;;;;;;;5.35;3.40;;;;;;;16.41;100.00;95496.34;5013021;28;20413;-78
2021/07/26 03:32:40;;;;;;;5.87;3.63;;;;;;;16.38;100.00;95505.28;5011759;28;20428;-78
2021/07/26 03:35:08;;;;;;;4.57;3.73;;;;;;;16.41;100.00;95499.78;5013008;28;20790;-76
2021/07/26 03:37:33;;;;;;;4.47;3.67;;;;;;;16.28;100.00;95506.25;5012841;28;20412;-76
2021/07/26 03:39:59;;;;;;;4.97;3.23;;;;;;;16.16;100.00;95508.16;5012989;28;20432;-77
2021/07/26 03:42:24;;;;;;;5.63;3.83;;;;;;;15.95;100.00;95503.91;5012776;28;20413;-77
2021/07/26 03:44:49;;;;;;;6.53;3.53;;;;;;;15.84;100.00;95503.22;5012870;28;20941;-78
2021/07/26 03:47:15;;;;;;;5.40;3.60;;;;;;;15.85;100.00;95502.25;5012582;28;20768;-77
2021/07/26 03:49:40;;;;;;;7.78;3.85;;;;;;;15.78;100.00;95499.34;5012822;28;20417;-76
2021/07/26 03:52:07;;;;;;;5.37;3.40;;;;;;;15.77;100.00;95507.31;5013126;28;20444;-76
2021/07/26 03:54:32;;;;;;;6.22;3.50;;;;;;;15.74;100.00;95503.19;5014537;28;20413;-78
2021/07/26 03:56:58;;;;;;;4.80;3.83;;;;;;;15.77;100.00;95497.69;5015870;28;20751;-78
2021/07/26 03:59:24;;;;;;;4.37;3.50;;;;;;;15.65;100.00;95494.38;5012999;28;20914;-78
2021/07/26 04:01:49;;;;;;;6.27;3.90;;;;;;;15.66;100.00;95493.41;5011266;28;20428;-78
2021/07/26 04:04:16;;;;;;;5.50;3.93;;;;;;;15.66;100.00;95496.00;5012748;28;20471;-79
2021/07/26 04:06:46;;;;;;;4.95;3.67;;;;;;;15.63;100.00;95488.41;5012338;28;20412;-78
2021/07/26 04:09:13;;;;;;;5.47;3.88;;;;;;;15.60;100.00;95486.06;5012435;28;20444;-78
2021/07/26 04:11:39;;;;;;;3.93;3.53;;;;;;;15.63;100.00;95480.59;5012256;28;20528;-78
2021/07/26 04:14:06;;;;;;;6.22;3.83;;;;;;;15.63;100.00;95480.59;5012352;28;20470;-78
2021/07/26 04:16:32;;;;;;;6.68;4.22;;;;;;;15.63;100.00;95480.59;5012064;28;20416;-78
2021/07/26 04:18:59;;;;;;;6.43;3.57;;;;;;;15.67;100.00;95478.56;5012218;28;20482;-78
2021/07/26 04:21:28;;;;;;;7.57;3.97;;;;;;;15.80;100.00;95483.56;5010981;28;20421;-78
2021/07/26 04:23:53;;;;;;;7.13;3.45;;;;;;;15.88;100.00;95483.69;5010104;28;20429;-78
2021/07/26 04:26:20;;;;;;;4.30;2.80;;;;;;;15.94;100.00;95483.13;5011833;28;20474;-78
2021/07/26 04:28:45;;;;;;;4.25;2.65;;;;;;;15.84;100.00;95482.31;5011974;28;20997;-77
2021/07/26 04:31:11;;;;;;;3.53;2.83;;;;;;;15.75;100.00;95478.72;5010672;28;20417;-77
2021/07/26 04:33:36;;;;;;;4.77;2.93;;;;;;;15.76;100.00;95480.38;5011964;28;20412;-76
2021/07/26 04:36:02;;;;;;;3.58;3.25;;;;;;;15.80;100.00;95473.94;5011615;28;20503;-77
2021/07/26 04:38:27;;;;;;;7.43;3.30;;;;;;;15.85;100.00;95484.78;5010657;28;20427;-77
2021/07/26 04:40:52;;;;;;;7.70;3.60;;;;;;;15.86;100.00;95475.97;5011853;28;20945;-77
2021/07/26 04:43:19;;;;;;;6.10;3.70;;;;;;;15.86;100.00;95485.59;5011602;28;20484;-78
2021/07/26 04:45:45;;;;;;;5.07;3.63;;;;;;;15.85;100.00;95490.00;5011521;28;20413;-77
2021/07/26 04:48:10;;;;;;;7.20;3.63;;;;;;;15.89;100.00;95491.38;5010525;28;20451;-78
2021/07/26 04:50:35;;;;;;;5.80;3.63;;;;;;;15.91;100.00;95499.09;5011627;28;20798;-76
2021/07/26 04:53:01;;;;;;;5.20;3.60;;;;;;;15.84;100.00;95506.63;5011554;28;20436;-76
2021/07/26 04:55:26;;;;;;;5.63;3.50;;;;;;;15.83;100.00;95511.97;5011369;28;20592;-79
2021/07/26 04:57:52;;;;;;;6.85;3.38;;;;;;;15.73;100.00;95502.34;5010162;28;20498;-78
2021/07/26 05:00:19;;;;;;;7.13;3.80;;;;;;;15.72;100.00;95511.16;5011550;28;20546;-78
2021/07/26 05:02:44;;;;;;;23.23;4.43;;;;;;;15.53;100.00;95507.63;5010157;28;20425;-77
2021/07/26 05:05:10;;;;;;;16.30;3.73;;;;;;;15.41;100.00;95506.91;5011407;28;20428;-75
2021/07/26 05:07:36;;;;;;;7.07;3.60;;;;;;;15.37;100.00;95506.34;5011576;28;20427;-75
2021/07/26 05:10:02;;;;;;;4.45;3.45;;;;;;;15.33;100.00;95502.34;5010439;28;20503;-75
2021/07/26 05:12:27;;;;;;;6.20;3.70;;;;;;;15.37;100.00;95510.72;5011758;28;20427;-77
2021/07/26 05:14:53;;;;;;;5.33;3.90;;;;;;;15.55;100.00;95516.16;5009027;28;20416;-77
2021/07/26 05:17:23;;;;;;;5.20;3.53;;;;;;;15.80;100.00;95520.94;4993547;28;20477;-77
2021/07/26 05:19:49;;;;;;;7.83;4.00;;;;;;;15.98;100.00;95526.28;4991972;28;20418;-76
2021/07/26 05:22:14;;;;;;;5.90;3.80;;;;;;;16.16;100.00;95534.28;4991743;28;20411;-76
2021/07/26 05:24:40;;;;;;;4.23;3.67;;;;;;;16.15;100.00;95530.88;4990407;28;20785;-75
2021/07/26 05:27:07;;;;;;;6.57;3.80;;;;;;;16.26;100.00;95531.69;4991368;28;20418;-76
2021/07/26 05:29:33;;;;;;;5.97;3.67;;;;;;;16.42;100.00;95531.97;4991586;28;20418;-77
2021/07/26 05:31:59;;;;;;;4.82;3.65;;;;;;;16.36;100.00;95538.59;4991434;28;20437;-75
2021/07/26 05:34:26;;;;;;;8.98;4.10;;;;;;;16.24;100.00;95533.63;4990213;28;20426;-76
2021/07/26 05:36:51;;;;;;;6.47;3.60;;;;;;;16.15;100.00;95533.47;4991303;28;20457;-76
2021/07/26 05:39:17;;;;;;;7.10;4.15;;;;;;;16.26;100.00;95532.53;4991502;28;20446;-76
2021/07/26 05:41:43;;;;;;;4.88;4.15;;;;;;;16.37;100.00;95534.19;4991290;28;20430;-75
2021/07/26 05:44:08;;;;;;;6.55;4.30;;;;;;;16.54;100.00;95530.03;4997262;28;20853;-76
2021/07/26 05:46:34;;;;;;;5.07;3.75;;;;;;;16.63;100.00;95537.06;5009542;28;20976;-76
2021/07/26 05:48:59;;;;;;;6.07;4.20;;;;;;;16.75;100.00;95533.34;5011094;28;20447;-76
2021/07/26 05:51:26;;;;;;;7.27;3.77;;;;;;;16.92;100.00;95537.06;5010981;28;20435;-76
2021/07/26 05:53:51;;;;;;;5.32;3.42;;;;;;;17.11;100.00;95544.84;5010876;28;20893;-77
2021/07/26 05:56:17;;;;;;;7.60;4.28;;;;;;;17.25;100.00;95542.75;5010671;28;20413;-76
2021/07/26 05:58:45;;;;;;;5.90;3.73;;;;;;;17.37;100.00;95534.56;5010911;28;20842;-76
2021/07/26 06:01:23;;;;;;;7.20;3.78;;;;;;;17.26;100.00;95536.56;5011333;28;20498;-76
2021/07/26 06:03:49;;;;;;;12.52;7.95;;;;;;;17.19;100.00;95541.53;5011236;28;20790;-78
2021/07/26 06:06:16;;;;;;;5.85;4.30;;;;;;;17.15;100.00;95548.00;5010355;28;20417;-77
2021/07/26 06:08:42;;;;;;;23.85;3.72;;;;;;;17.29;100.00;95544.94;5012251;28;20487;-77
2021/07/26 06:11:08;;;;;;;5.17;3.60;;;;;;;17.42;100.00;95545.44;5012891;28;20421;-78
2021/07/26 06:13:33;;;;;;;5.17;3.80;;;;;;;17.64;100.00;95548.66;5012489;28;20417;-77
2021/07/26 06:15:59;;;;;;;6.23;3.73;;;;;;;18.00;100.00;95536.50;5013166;28;20408;-77
2021/07/26 06:18:26;;;;;;;5.45;3.70;;;;;;;18.36;100.00;95541.78;5012109;28;20408;-78
2021/07/26 06:20:52;;;;;;;5.65;4.00;;;;;;;18.70;100.00;95539.28;5013586;28;20463;-79
2021/07/26 06:23:20;;;;;;;4.30;3.50;;;;;;;18.80;100.00;95536.59;5009916;28;20412;-71
2021/07/26 06:25:46;;;;;;;5.05;3.47;;;;;;;18.95;100.00;95544.72;5012825;28;20429;-78
2021/07/26 06:28:12;;;;;;;6.18;3.65;;;;;;;19.05;99.63;95540.22;5013138;28;20409;-78
2021/07/26 06:30:37;;;;;;;6.18;3.55;;;;;;;19.18;100.00;95534.56;5013502;28;20444;-77
2021/07/26 06:33:07;;;;;;;6.30;3.90;;;;;;;19.45;97.56;95542.25;5012644;28;20425;-77
2021/07/26 06:35:32;;;;;;;8.55;3.55;;;;;;;19.53;96.36;95542.31;5012977;28;20443;-77
2021/07/26 06:37:58;;;;;;;5.67;3.77;;;;;;;19.61;95.39;95544.13;5012711;28;20476;-78
2021/07/26 06:40:23;;;;;;;9.02;3.88;;;;;;;19.58;92.29;95547.94;5013735;28;20480;-78
2021/07/26 06:42:50;;;;;;;5.10;3.73;;;;;;;19.85;94.26;95548.72;5013885;28;20425;-79
2021/07/26 06:45:15;;;;;;;6.15;3.88;;;;;;;20.21;92.43;95549.31;5013583;28;20413;-78
2021/07/26 06:47:43;;;;;;;6.00;3.97;;;;;;;20.21;92.54;95551.09;5017802;28;20504;-76
2021/07/26 06:50:10;;;;;;;5.45;3.53;;;;;;;20.36;92.09;95556.56;5022305;28;20658;-74
2021/07/26 06:52:36;;;;;;;6.72;3.72;;;;;;;20.39;91.18;95553.63;5026080;28;20429;-78
2021/07/26 06:55:02;;;;;;;7.30;3.73;;;;;;;20.16;88.99;95541.06;5025642;28;20459;-77
2021/07/26 06:57:27;;;;;;;5.38;3.80;;;;;;;20.21;92.62;95541.44;5020440;28;20444;-78
2021/07/26 06:59:54;;;;;;;6.55;4.05;;;;;;;20.39;91.88;95543.91;5018286;28;20408;-78
2021/07/26 07:02:20;;;;;;;4.80;3.58;;;;;;;20.78;91.69;95546.78;5016756;28;20471;-78
2021/07/26 07:04:45;;;;;;;5.30;3.42;;;;;;;20.56;85.04;95546.59;5015843;28;20938;-77
2021/07/26 07:07:11;;;;;;;4.13;3.35;;;;;;;20.51;84.42;95544.47;5017998;28;20816;-78
2021/07/26 07:09:36;;;;;;;4.90;3.70;;;;;;;20.72;85.65;95551.88;5018453;28;20448;-77
2021/07/26 07:12:02;;;;;;;5.53;3.77;;;;;;;20.65;85.68;95553.50;5017415;28;20519;-78
2021/07/26 07:14:27;;;;;;;7.40;3.70;;;;;;;20.89;82.92;95556.16;5016673;28;20428;-79
2021/07/26 07:16:54;;;;;;;6.20;3.40;;;;;;;21.28;83.70;95558.06;5017052;28;20587;-79
2021/07/26 07:19:20;;;;;;;4.77;3.43;;;;;;;21.60;79.23;95559.03;5018467;28;20427;-78
2021/07/26 07:21:45;;;;;;;3.83;2.97;;;;;;;21.83;81.77;95557.28;5017753;28;20775;-79
2021/07/26 07:24:10;;;;;;;7.53;2.95;;;;;;;21.21;78.32;95552.69;5017421;28;20421;-79
2021/07/26 07:26:36;;;;;;;6.67;3.10;;;;;;;20.86;80.27;95558.28;5016571;28;20982;-78
2021/07/26 07:29:02;;;;;;;5.65;3.03;;;;;;;20.87;80.88;95558.13;5016135;28;20810;-79
2021/07/26 07:31:30;;;;;;;10.88;2.97;;;;;;;21.02;78.65;95559.13;5016326;28;20429;-78
2021/07/26 07:33:57;;;;;;;5.43;3.20;;;;;;;20.97;77.71;95569.31;5018263;28;20412;-79
2021/07/26 07:36:24;;;;;;;4.57;3.30;;;;;;;21.29;78.27;95578.19;5011683;28;20417;-79
2021/07/26 07:38:50;;;;;;;10.75;3.53;;;;;;;21.65;78.34;95575.16;5014284;28;20424;-81
2021/07/26 07:41:16;;;;;;;6.17;3.90;;;;;;;21.96;78.89;95573.41;5014560;28;20988;-78
2021/07/26 07:43:43;;;;;;;5.85;3.17;;;;;;;22.19;75.73;95573.47;5014279;28;20455;-79
2021/07/26 07:46:09;;;;;;;6.07;3.25;;;;;;;22.57;75.81;95576.22;5017000;28;20413;-80
2021/07/26 07:48:34;;;;;;;5.15;3.05;;;;;;;22.62;71.40;95580.97;5015333;28;20413;-80
2021/07/26 07:51:04;;;;;;;6.85;3.08;;;;;;;22.79;71.18;95589.63;5013927;28;20428;-80
2021/07/26 07:53:30;;;;;;;3.67;2.87;;;;;;;23.04;69.26;95585.00;5015086;28;20952;-79
2021/07/26 07:55:56;;;;;;;5.77;3.17;;;;;;;22.62;68.94;95581.81;5014672;28;20491;-80
2021/07/26 07:58:21;;;;;;;4.83;3.00;;;;;;;23.08;70.39;95591.56;5014098;28;20417;-79
2021/07/26 08:00:49;;;;;;;4.57;3.03;;;;;;;23.64;70.20;95584.91;5013242;28;20424;-77
2021/07/26 08:03:14;;;;;;;5.38;3.00;;;;;;;23.59;63.91;95581.19;5013051;28;20945;-76
2021/07/26 08:05:40;;;;;;;12.10;4.47;;;;;;;23.78;65.81;95587.78;5012486;28;20405;-77
2021/07/26 08:08:08;;;;;;;8.50;4.53;;;;;;;23.88;64.49;95586.50;5011571;28;20448;-77
2021/07/26 08:10:33;;;;;;;8.70;3.37;;;;;;;23.60;64.65;95586.28;5013013;28;20449;-78
2021/07/26 08:12:59;;;;;;;3.83;2.77;;;;;;;23.55;64.24;95585.19;5011382;28;20463;-77
2021/07/26 08:15:24;;;;;;;3.40;2.90;;;;;;;23.71;64.43;95592.97;5011930;28;20463;-78
2021/07/26 08:17:50;;;;;;;3.53;2.70;;;;;;;23.87;62.78;95587.50;5012552;28;20416;-77
2021/07/26 08:20:18;;;;;;;3.17;2.60;;;;;;;23.76;62.16;95587.13;5012472;28;20416;-78
2021/07/26 08:22:45;;;;;;;5.00;3.00;;;;;;;23.07;63.37;95588.13;5011977;28;20493;-77
2021/07/26 08:25:13;;;;;;;4.00;2.88;;;;;;;23.31;65.62;95595.00;5011020;28;20452;-78
2021/07/26 08:27:50;;;;;;;2.95;2.60;;;;;;;23.54;61.81;95586.19;5012490;28;20452;-78
2021/07/26 08:30:18;;;;;;;6.72;2.90;;;;;;;23.77;62.67;95589.63;5011935;28;20435;-78
2021/07/26 08:32:44;;;;;;;4.32;2.70;;;;;;;23.62;61.03;95592.22;5013277;28;20479;-78
2021/07/26 08:35:09;;;;;;;4.27;2.90;;;;;;;24.09;63.69;95593.69;5012740;28;20412;-78
2021/07/26 08:37:35;;;;;;;3.77;2.77;;;;;;;24.03;60.59;95594.44;5013619;28;20420;-78
2021/07/26 08:40:00;;;;;;;3.30;2.70;;;;;;;24.19;62.28;95588.13;5012724;28;20425;-78
2021/07/26 08:42:27;;;;;;;4.57;3.10;;;;;;;24.40;62.28;95587.38;5012773;28;20898;-78
2021/07/26 08:44:53;;;;;;;12.00;5.80;;;;;;;24.68;64.75;95586.66;5012624;28;20491;-78
2021/07/26 08:47:19;;;;;;;5.77;3.10;;;;;;;24.90;65.97;95585.63;5010817;28;20987;-78
2021/07/26 08:49:45;;;;;;;18.90;6.77;;;;;;;24.79;62.27;95583.50;5012294;28;20423;-78
2021/07/26 08:52:13;;;;;;;5.45;2.75;;;;;;;24.67;60.07;95580.53;5011846;28;20851;-77
2021/07/26 08:54:38;;;;;;;3.17;2.60;;;;;;;24.59;59.89;95581.47;5011914;28;20440;-77
2021/07/26 08:57:04;;;;;;;3.50;2.30;;;;;;;24.96;59.61;95584.06;5011094;28;20429;-78
2021/07/26 08:59:32;;;;;;;3.72;2.83;;;;;;;25.05;57.89;95589.03;5011675;28;20491;-78
2021/07/26 09:01:57;;;;;;;4.40;2.90;;;;;;;24.81;57.72;95582.31;5012440;28;20473;-78
2021/07/26 09:04:22;;;;;;;4.03;2.60;;;;;;;25.06;58.77;95582.72;5011074;28;20420;-77
2021/07/26 09:06:48;;;;;;;4.23;2.70;;;;;;;25.05;57.27;95586.38;5010440;28;20573;-76
2021/07/26 09:09:13;;;;;;;4.10;2.70;;;;;;;25.09;58.66;95589.47;5012114;28;21000;-78
2021/07/26 09:11:43;;;;;;;4.50;2.90;;;;;;;25.17;56.68;95581.41;5012881;28;20980;-79
2021/07/26 09:14:09;;;;;;;6.10;2.53;;;;;;;24.89;57.67;95580.53;5012318;28;20421;-78
2021/07/26 09:16:35;;;;;;;5.17;3.07;;;;;;;25.14;59.61;95579.19;5013824;28;20931;-79
2021/07/26 09:19:03;;;;;;;2.90;2.60;;;;;;;25.49;59.19;95573.91;5012553;28;20421;-78
2021/07/26 09:21:56;;;;;;;3.55;2.75;;;;;;;25.72;56.62;95568.34;5011938;28;20504;-78
2021/07/26 09:24:24;;;;;;;4.40;2.65;;;;;;;25.63;59.20;95569.53;4977065;28;20443;-79
2021/07/26 09:26:49;;;;;;;7.70;3.08;;;;;;;25.83;58.57;95568.63;5010825;28;20424;-78
2021/07/26 09:29:26;;;;;;;3.90;2.65;;;;;;;25.83;53.27;95567.81;5011430;28;20970;-79
2021/07/26 09:31:57;;;;;;;3.40;2.70;;;;;;;25.82;62.00;95564.34;5012550;28;20512;-79
2021/07/26 09:34:23;;;;;;;13.90;6.07;;;;;;;26.20;58.68;95563.91;5011675;28;20420;-78
2021/07/26 09:36:49;;;;;;;17.98;8.93;;;;;;;26.11;61.84;95551.84;5011329;28;20834;-78
2021/07/26 09:39:23;;;;;;;3.47;2.87;;;;;;;26.37;54.44;95555.63;5012984;28;20423;-79
2021/07/26 09:41:49;;;;;;;3.97;2.67;;;;;;;26.37;53.27;95553.78;5011168;28;20428;-77
2021/07/26 09:44:21;;;;;;;3.45;2.45;;;;;;;25.98;52.71;95557.91;5010176;28;20483;-78
2021/07/26 09:46:47;;;;;;;5.20;2.70;;;;;;;26.39;51.52;95557.03;5011438;28;20467;-78
2021/07/26 09:49:15;;;;;;;4.72;2.72;;;;;;;26.54;53.06;95556.91;5022510;28;20413;-79
2021/07/26 09:51:41;;;;;;;4.85;2.75;;;;;;;26.40;53.47;95547.22;5021619;28;20953;-78
2021/07/26 09:54:07;;;;;;;5.60;2.60;;;;;;;25.71;53.62;95550.81;5016321;28;20779;-78
2021/07/26 09:56:33;;;;;;;4.80;2.67;;;;;;;25.52;54.23;95553.13;5012047;28;20428;-77
2021/07/26 09:58:59;;;;;;;4.32;2.60;;;;;;;25.55;55.33;95549.28;5011167;28;20782;-78
2021/07/26 10:01:25;;;;;;;5.00;2.30;;;;;;;25.54;53.28;95553.75;5012067;28;20413;-78
2021/07/26 10:03:51;;;;;;;3.65;2.53;;;;;;;25.20;52.57;95538.63;5011408;28;20416;-78
2021/07/26 10:06:18;;;;;;;3.72;2.60;;;;;;;24.38;56.68;95550.47;5009691;28;20423;-77
2021/07/26 10:08:44;;;;;;;4.28;2.90;;;;;;;24.04;60.20;95545.81;5011298;28;20783;-75
2021/07/26 10:11:10;;;;;;;4.97;2.67;;;;;;;24.28;58.47;95544.66;5010940;28;20420;-77
2021/07/26 10:13:42;;;;;;;5.28;2.92;;;;;;;24.28;58.64;95551.75;5010353;28;20429;-78
2021/07/26 10:16:13;;;;;;;4.10;2.50;;;;;;;24.24;57.56;95546.03;5010654;28;20451;-78
2021/07/26 10:18:42;;;;;;;4.10;2.80;;;;;;;23.94;57.95;95555.84;5010815;28;20417;-77
2021/07/26 10:21:07;;;;;;;3.97;2.97;;;;;;;24.05;59.66;95550.09;5011097;28;20459;-77
2021/07/26 10:23:38;;;;;;;4.50;2.67;;;;;;;24.05;58.87;95554.56;5014320;28;20441;-77
2021/07/26 10:26:05;;;;;;;3.45;2.60;;;;;;;23.73;60.25;95556.59;5014463;28;20826;-78
2021/07/26 10:28:34;;;;;;;3.22;2.70;;;;;;;23.75;61.18;95548.47;5014464;28;20420;-77
2021/07/26 10:30:59;;;;;;;3.40;2.53;;;;;;;23.55;64.15;95564.06;5014353;28;20488;-77
2021/07/26 10:33:25;;;;;;;2.63;2.13;;;;;;;23.35;65.51;95555.81;5013802;28;20918;-76
2021/07/26 10:35:52;;;;;;;4.10;2.70;;;;;;;23.61;63.34;95553.53;5012954;28;20431;-78
2021/07/26 10:39:02;;;;;;;4.78;2.70;;;;;;;23.72;63.00;95548.84;5014430;28;20459;-78
2021/07/26 10:42:10;;;;;;;3.50;2.85;;;;;;;24.30;62.48;95531.25;4939227;29;20429;-79
2021/07/26 10:44:46;;;;;;;3.70;2.80;;;;;;;24.86;61.76;95547.31;5004150;28;20416;-77
2021/07/26 10:47:14;;;;;;;3.88;2.47;;;;;;;25.23;60.12;95537.44;5008426;28;20430;-77
2021/07/26 10:50:13;;;;;;;3.47;3.00;;;;;;;25.72;60.16;95529.38;4994448;28;20472;-77
2021/07/26 10:52:46;;;;;;;2.90;2.60;;;;;;;25.77;56.43;95540.22;5003203;28;20431;-78
2021/07/26 10:55:57;;;;;;;4.17;2.53;;;;;;;25.89;54.20;95534.41;5014406;28;20416;-77
2021/07/26 10:59:02;;;;;;;4.25;2.80;;;;;;;25.69;54.36;95548.31;5015258;28;20456;-78
2021/07/26 11:02:01;;;;;;;8.03;3.90;;;;;;;24.60;63.82;95545.22;4998765;28;20429;-78
2021/07/26 11:04:35;;;;;;;5.13;3.25;;;;;;;24.22;66.12;95550.69;4987484;28;20434;-78
2021/07/26 11:07:03;;;;;;;5.18;3.22;;;;;;;23.27;69.57;95548.78;4994841;28;20418;-81
2021/07/26 11:09:46;;;;;;;4.10;3.17;;;;;;;22.28;74.21;95537.31;4995469;28;20480;-77
2021/07/26 11:12:12;;;;;;;4.20;3.30;;;;;;;22.56;73.59;95542.09;5013617;28;20433;-77
2021/07/26 11:14:37;;;;;;;4.07;3.40;;;;;;;22.89;72.17;95543.50;5013361;28;20503;-77
2021/07/26 11:17:07;;;;;;;4.70;3.03;;;;;;;22.58;73.62;95542.72;5014386;28;20436;-78
2021/07/26 11:19:54;;;;;;;3.97;3.40;;;;;;;22.54;72.90;95544.09;5014824;28;20409;-78
2021/07/26 11:23:02;;;;;;;4.65;3.28;;;;;;;22.77;72.82;95541.44;5016056;28;20408;-78
2021/07/26 11:25:29;;;;;;;5.15;3.53;;;;;;;22.45;75.59;95536.22;5005193;28;20437;-79
2021/07/26 11:27:55;;;;;;;5.00;3.40;;;;;;;22.38;77.22;95537.91;5013619;28;20427;-77
2021/07/26 11:30:22;;;;;;;4.25;3.08;;;;;;;21.92;77.50;95539.66;5012165;28;21008;-77
2021/07/26 11:32:52;;;;;;;8.25;3.45;;;;;;;21.63;76.49;95541.06;5013221;28;20428;-77